sensor_id;sensor_type;location;lat;lon;timestamp;P1;durP1;ratioP1;P2;durP2;ratioP2
13238;SDS011;6686;51.292;4.166;2023-02-21T00:01:44;44.60;;;25.63;;
13238;SDS011;6686;51.292;4.166;2023-02-21T00:04:49;50.07;;;28.83;;
13238;SDS011;6686;51.292;4.166;2023-02-21T00:07:54;47.03;;;27.20;;
13238;SDS011;6686;51.292;4.166;2023-02-21T00:10:58;51.53;;;28.17;;
13238;SDS011;6686;51.292;4.166;2023-02-21T00:14:03;49.10;;;29.07;;
13238;SDS011;6686;51.292;4.166;2023-02-21T00:17:07;50.13;;;28.53;;
13238;SDS011;6686;51.292;4.166;2023-02-21T00:20:12;53.97;;;30.07;;
13238;SDS011;6686;51.292;4.166;2023-02-21T00:23:17;55.40;;;30.37;;
13238;SDS011;6686;51.292;4.166;2023-02-21T00:26:22;59.20;;;31.40;;
13238;SDS011;6686;51.292;4.166;2023-02-21T00:29:26;72.70;;;35.53;;
13238;SDS011;6686;51.292;4.166;2023-02-21T00:32:31;73.33;;;42.70;;
13238;SDS011;6686;51.292;4.166;2023-02-21T00:35:36;73.55;;;42.28;;
13238;SDS011;6686;51.292;4.166;2023-02-21T00:38:40;59.70;;;33.60;;
13238;SDS011;6686;51.292;4.166;2023-02-21T00:41:45;53.33;;;29.97;;
13238;SDS011;6686;51.292;4.166;2023-02-21T00:44:49;49.03;;;28.07;;
13238;SDS011;6686;51.292;4.166;2023-02-21T00:47:54;46.73;;;27.17;;
13238;SDS011;6686;51.292;4.166;2023-02-21T00:50:58;46.53;;;26.90;;
13238;SDS011;6686;51.292;4.166;2023-02-21T00:54:03;45.97;;;27.17;;
13238;SDS011;6686;51.292;4.166;2023-02-21T00:57:08;51.20;;;28.30;;
13238;SDS011;6686;51.292;4.166;2023-02-21T01:00:14;52.20;;;30.07;;
13238;SDS011;6686;51.292;4.166;2023-02-21T01:03:17;70.33;;;34.93;;
13238;SDS011;6686;51.292;4.166;2023-02-21T01:06:22;72.90;;;34.57;;
13238;SDS011;6686;51.292;4.166;2023-02-21T01:09:26;56.30;;;29.43;;
13238;SDS011;6686;51.292;4.166;2023-02-21T01:12:32;54.57;;;30.40;;
13238;SDS011;6686;51.292;4.166;2023-02-21T01:15:36;55.60;;;30.83;;
13238;SDS011;6686;51.292;4.166;2023-02-21T01:18:41;50.93;;;29.23;;
13238;SDS011;6686;51.292;4.166;2023-02-21T01:21:45;59.63;;;30.70;;
13238;SDS011;6686;51.292;4.166;2023-02-21T01:24:50;64.93;;;31.90;;
13238;SDS011;6686;51.292;4.166;2023-02-21T01:27:55;63.87;;;36.45;;
13238;SDS011;6686;51.292;4.166;2023-02-21T01:30:59;58.17;;;30.77;;
13238;SDS011;6686;51.292;4.166;2023-02-21T01:34:04;60.27;;;31.13;;
13238;SDS011;6686;51.292;4.166;2023-02-21T01:37:09;56.43;;;30.37;;
13238;SDS011;6686;51.292;4.166;2023-02-21T01:40:14;60.93;;;31.77;;
13238;SDS011;6686;51.292;4.166;2023-02-21T01:43:19;52.87;;;30.57;;
13238;SDS011;6686;51.292;4.166;2023-02-21T01:46:24;58.03;;;31.50;;
13238;SDS011;6686;51.292;4.166;2023-02-21T01:49:29;59.77;;;31.03;;
13238;SDS011;6686;51.292;4.166;2023-02-21T01:52:33;60.97;;;31.50;;
13238;SDS011;6686;51.292;4.166;2023-02-21T01:55:38;65.00;;;33.13;;
13238;SDS011;6686;51.292;4.166;2023-02-21T01:58:43;60.60;;;30.83;;
13238;SDS011;6686;51.292;4.166;2023-02-21T02:01:53;57.07;;;30.37;;
13238;SDS011;6686;51.292;4.166;2023-02-21T02:05:01;54.40;;;28.53;;
13238;SDS011;6686;51.292;4.166;2023-02-21T02:08:07;62.10;;;30.20;;
13238;SDS011;6686;51.292;4.166;2023-02-21T02:18:11;66.62;;;36.67;;
13238;SDS011;6686;51.292;4.166;2023-02-21T02:21:04;64.60;;;32.07;;
13238;SDS011;6686;51.292;4.166;2023-02-21T02:30:02;83.50;;;37.63;;
13238;SDS011;6686;51.292;4.166;2023-02-21T02:36:09;69.53;;;33.87;;
13238;SDS011;6686;51.292;4.166;2023-02-21T02:38:57;71.50;;;34.67;;
13238;SDS011;6686;51.292;4.166;2023-02-21T02:44:52;68.67;;;33.50;;
13238;SDS011;6686;51.292;4.166;2023-02-21T02:47:43;63.90;;;31.17;;
13238;SDS011;6686;51.292;4.166;2023-02-21T02:50:28;61.33;;;28.73;;
13238;SDS011;6686;51.292;4.166;2023-02-21T02:53:15;67.30;;;30.97;;
13238;SDS011;6686;51.292;4.166;2023-02-21T02:56:05;62.50;;;31.43;;
13238;SDS011;6686;51.292;4.166;2023-02-21T02:58:47;74.80;;;34.17;;
13238;SDS011;6686;51.292;4.166;2023-02-21T03:01:39;76.27;;;35.30;;
13238;SDS011;6686;51.292;4.166;2023-02-21T03:04:45;86.30;;;35.70;;
13238;SDS011;6686;51.292;4.166;2023-02-21T03:10:37;80.13;;;36.83;;
13238;SDS011;6686;51.292;4.166;2023-02-21T03:16:27;86.30;;;35.60;;
13238;SDS011;6686;51.292;4.166;2023-02-21T03:19:19;85.50;;;35.40;;
13238;SDS011;6686;51.292;4.166;2023-02-21T03:22:12;88.07;;;35.60;;
13238;SDS011;6686;51.292;4.166;2023-02-21T03:24:57;107.15;;;45.40;;
13238;SDS011;6686;51.292;4.166;2023-02-21T03:27:42;107.83;;;46.13;;
13238;SDS011;6686;51.292;4.166;2023-02-21T03:30:28;106.30;;;45.40;;
13238;SDS011;6686;51.292;4.166;2023-02-21T03:33:14;88.93;;;37.33;;
13238;SDS011;6686;51.292;4.166;2023-02-21T03:36:04;72.47;;;33.37;;
13238;SDS011;6686;51.292;4.166;2023-02-21T03:38:50;79.07;;;35.07;;
13238;SDS011;6686;51.292;4.166;2023-02-21T03:41:36;83.17;;;34.13;;
13238;SDS011;6686;51.292;4.166;2023-02-21T03:44:22;89.43;;;35.37;;
13238;SDS011;6686;51.292;4.166;2023-02-21T03:47:09;90.80;;;36.13;;
13238;SDS011;6686;51.292;4.166;2023-02-21T03:49:55;95.03;;;35.83;;
13238;SDS011;6686;51.292;4.166;2023-02-21T03:52:41;103.40;;;37.43;;
13238;SDS011;6686;51.292;4.166;2023-02-21T03:55:27;102.30;;;34.07;;
13238;SDS011;6686;51.292;4.166;2023-02-21T03:58:13;94.60;;;35.47;;
13238;SDS011;6686;51.292;4.166;2023-02-21T04:00:59;103.30;;;36.13;;
13238;SDS011;6686;51.292;4.166;2023-02-21T04:03:44;85.13;;;34.40;;
13238;SDS011;6686;51.292;4.166;2023-02-21T04:06:30;88.47;;;32.57;;
13238;SDS011;6686;51.292;4.166;2023-02-21T04:09:16;85.27;;;34.13;;
13238;SDS011;6686;51.292;4.166;2023-02-21T04:12:02;91.90;;;36.70;;
13238;SDS011;6686;51.292;4.166;2023-02-21T04:14:49;85.90;;;31.53;;
13238;SDS011;6686;51.292;4.166;2023-02-21T04:17:34;71.03;;;29.93;;
13238;SDS011;6686;51.292;4.166;2023-02-21T04:20:21;76.77;;;30.53;;
13238;SDS011;6686;51.292;4.166;2023-02-21T04:23:07;77.97;;;31.13;;
13238;SDS011;6686;51.292;4.166;2023-02-21T04:25:52;74.00;;;30.33;;
13238;SDS011;6686;51.292;4.166;2023-02-21T04:28:38;66.80;;;28.70;;
13238;SDS011;6686;51.292;4.166;2023-02-21T04:31:25;78.33;;;29.93;;
13238;SDS011;6686;51.292;4.166;2023-02-21T04:34:11;72.83;;;29.90;;
13238;SDS011;6686;51.292;4.166;2023-02-21T04:36:56;65.33;;;27.30;;
13238;SDS011;6686;51.292;4.166;2023-02-21T04:39:42;67.73;;;27.90;;
13238;SDS011;6686;51.292;4.166;2023-02-21T04:42:31;67.97;;;26.77;;
13238;SDS011;6686;51.292;4.166;2023-02-21T04:45:16;69.50;;;27.80;;
13238;SDS011;6686;51.292;4.166;2023-02-21T04:48:03;67.10;;;27.37;;
13238;SDS011;6686;51.292;4.166;2023-02-21T04:50:49;66.97;;;27.70;;
13238;SDS011;6686;51.292;4.166;2023-02-21T04:53:35;66.70;;;26.87;;
13238;SDS011;6686;51.292;4.166;2023-02-21T04:56:22;64.73;;;27.60;;
13238;SDS011;6686;51.292;4.166;2023-02-21T04:59:07;59.27;;;27.07;;
13238;SDS011;6686;51.292;4.166;2023-02-21T05:01:53;58.57;;;25.70;;
13238;SDS011;6686;51.292;4.166;2023-02-21T05:04:39;82.37;;;34.67;;
13238;SDS011;6686;51.292;4.166;2023-02-21T05:07:25;78.87;;;33.95;;
13238;SDS011;6686;51.292;4.166;2023-02-21T05:10:11;74.82;;;33.53;;
13238;SDS011;6686;51.292;4.166;2023-02-21T05:12:57;63.93;;;28.30;;
13238;SDS011;6686;51.292;4.166;2023-02-21T05:15:43;70.67;;;28.67;;
13238;SDS011;6686;51.292;4.166;2023-02-21T05:18:30;61.47;;;24.80;;
13238;SDS011;6686;51.292;4.166;2023-02-21T05:21:18;70.93;;;26.90;;
13238;SDS011;6686;51.292;4.166;2023-02-21T05:24:05;67.07;;;26.53;;
13238;SDS011;6686;51.292;4.166;2023-02-21T05:26:50;56.17;;;25.17;;
13238;SDS011;6686;51.292;4.166;2023-02-21T05:29:36;56.20;;;23.77;;
13238;SDS011;6686;51.292;4.166;2023-02-21T05:32:22;57.37;;;23.13;;
13238;SDS011;6686;51.292;4.166;2023-02-21T05:35:09;57.37;;;23.00;;
13238;SDS011;6686;51.292;4.166;2023-02-21T05:37:54;53.00;;;23.63;;
13238;SDS011;6686;51.292;4.166;2023-02-21T05:40:40;55.83;;;23.67;;
13238;SDS011;6686;51.292;4.166;2023-02-21T05:43:26;61.77;;;23.63;;
13238;SDS011;6686;51.292;4.166;2023-02-21T05:49:07;59.10;;;24.07;;
13238;SDS011;6686;51.292;4.166;2023-02-21T05:51:53;53.33;;;23.37;;
13238;SDS011;6686;51.292;4.166;2023-02-21T05:54:39;60.38;;;27.50;;
13238;SDS011;6686;51.292;4.166;2023-02-21T05:57:25;56.83;;;24.47;;
13238;SDS011;6686;51.292;4.166;2023-02-21T06:00:14;53.73;;;22.90;;
13238;SDS011;6686;51.292;4.166;2023-02-21T06:02:57;48.83;;;22.77;;
13238;SDS011;6686;51.292;4.166;2023-02-21T06:05:43;58.80;;;23.77;;
13238;SDS011;6686;51.292;4.166;2023-02-21T06:08:29;51.77;;;23.77;;
13238;SDS011;6686;51.292;4.166;2023-02-21T06:11:20;58.50;;;22.20;;
13238;SDS011;6686;51.292;4.166;2023-02-21T06:14:01;46.00;;;22.37;;
13238;SDS011;6686;51.292;4.166;2023-02-21T06:16:50;52.43;;;23.30;;
13238;SDS011;6686;51.292;4.166;2023-02-21T06:19:35;50.90;;;21.73;;
13238;SDS011;6686;51.292;4.166;2023-02-21T06:22:21;49.87;;;20.40;;
13238;SDS011;6686;51.292;4.166;2023-02-21T06:25:07;48.03;;;20.93;;
13238;SDS011;6686;51.292;4.166;2023-02-21T06:27:53;48.87;;;23.30;;
13238;SDS011;6686;51.292;4.166;2023-02-21T06:30:39;53.78;;;25.90;;
13238;SDS011;6686;51.292;4.166;2023-02-21T06:33:25;49.13;;;21.07;;
13238;SDS011;6686;51.292;4.166;2023-02-21T06:36:13;48.57;;;21.37;;
13238;SDS011;6686;51.292;4.166;2023-02-21T06:38:57;45.47;;;20.77;;
13238;SDS011;6686;51.292;4.166;2023-02-21T06:41:43;48.60;;;19.97;;
13238;SDS011;6686;51.292;4.166;2023-02-21T06:44:29;52.60;;;25.00;;
13238;SDS011;6686;51.292;4.166;2023-02-21T06:47:15;49.60;;;23.00;;
13238;SDS011;6686;51.292;4.166;2023-02-21T06:50:01;49.03;;;22.33;;
13238;SDS011;6686;51.292;4.166;2023-02-21T06:52:47;46.77;;;22.07;;
13238;SDS011;6686;51.292;4.166;2023-02-21T06:55:33;45.27;;;21.33;;
13238;SDS011;6686;51.292;4.166;2023-02-21T06:58:19;53.03;;;21.77;;
13238;SDS011;6686;51.292;4.166;2023-02-21T07:01:06;49.87;;;21.83;;
13238;SDS011;6686;51.292;4.166;2023-02-21T07:03:53;51.40;;;20.03;;
13238;SDS011;6686;51.292;4.166;2023-02-21T07:06:38;41.93;;;19.70;;
13238;SDS011;6686;51.292;4.166;2023-02-21T07:09:24;40.97;;;19.03;;
13238;SDS011;6686;51.292;4.166;2023-02-21T07:12:10;46.50;;;19.93;;
13238;SDS011;6686;51.292;4.166;2023-02-21T07:14:56;41.30;;;20.27;;
13238;SDS011;6686;51.292;4.166;2023-02-21T07:17:42;42.37;;;18.50;;
13238;SDS011;6686;51.292;4.166;2023-02-21T07:20:28;39.77;;;19.03;;
13238;SDS011;6686;51.292;4.166;2023-02-21T07:23:14;42.63;;;18.43;;
13238;SDS011;6686;51.292;4.166;2023-02-21T07:26:00;39.10;;;19.20;;
13238;SDS011;6686;51.292;4.166;2023-02-21T07:28:47;46.33;;;23.30;;
13238;SDS011;6686;51.292;4.166;2023-02-21T07:31:32;44.93;;;20.77;;
13238;SDS011;6686;51.292;4.166;2023-02-21T07:34:18;43.27;;;19.33;;
13238;SDS011;6686;51.292;4.166;2023-02-21T07:37:04;42.93;;;19.50;;
13238;SDS011;6686;51.292;4.166;2023-02-21T07:39:50;41.13;;;19.70;;
13238;SDS011;6686;51.292;4.166;2023-02-21T07:42:36;43.23;;;18.67;;
13238;SDS011;6686;51.292;4.166;2023-02-21T07:45:22;45.53;;;21.95;;
13238;SDS011;6686;51.292;4.166;2023-02-21T07:48:08;44.73;;;19.20;;
13238;SDS011;6686;51.292;4.166;2023-02-21T07:50:54;35.97;;;16.80;;
13238;SDS011;6686;51.292;4.166;2023-02-21T07:53:40;33.20;;;16.47;;
13238;SDS011;6686;51.292;4.166;2023-02-21T07:56:26;33.20;;;16.70;;
13238;SDS011;6686;51.292;4.166;2023-02-21T07:59:12;31.07;;;14.80;;
13238;SDS011;6686;51.292;4.166;2023-02-21T08:01:58;30.47;;;15.60;;
13238;SDS011;6686;51.292;4.166;2023-02-21T08:04:44;33.37;;;15.30;;
13238;SDS011;6686;51.292;4.166;2023-02-21T08:07:30;34.40;;;18.57;;
13238;SDS011;6686;51.292;4.166;2023-02-21T08:10:20;33.60;;;18.37;;
13238;SDS011;6686;51.292;4.166;2023-02-21T08:13:05;31.73;;;18.17;;
13238;SDS011;6686;51.292;4.166;2023-02-21T08:15:51;29.60;;;15.07;;
13238;SDS011;6686;51.292;4.166;2023-02-21T08:18:37;31.20;;;16.00;;
13238;SDS011;6686;51.292;4.166;2023-02-21T08:21:23;29.53;;;14.47;;
13238;SDS011;6686;51.292;4.166;2023-02-21T08:24:09;32.57;;;14.83;;
13238;SDS011;6686;51.292;4.166;2023-02-21T08:26:55;29.27;;;15.53;;
13238;SDS011;6686;51.292;4.166;2023-02-21T08:29:41;25.53;;;13.83;;
13238;SDS011;6686;51.292;4.166;2023-02-21T08:32:27;27.60;;;13.80;;
13238;SDS011;6686;51.292;4.166;2023-02-21T08:35:14;30.67;;;17.07;;
13238;SDS011;6686;51.292;4.166;2023-02-21T08:37:59;30.80;;;14.23;;
13238;SDS011;6686;51.292;4.166;2023-02-21T08:40:46;28.10;;;13.57;;
13238;SDS011;6686;51.292;4.166;2023-02-21T08:43:32;25.63;;;13.17;;
13238;SDS011;6686;51.292;4.166;2023-02-21T08:46:18;27.47;;;14.90;;
13238;SDS011;6686;51.292;4.166;2023-02-21T08:49:04;29.65;;;17.70;;
13238;SDS011;6686;51.292;4.166;2023-02-21T08:51:50;31.77;;;16.17;;
13238;SDS011;6686;51.292;4.166;2023-02-21T08:54:37;27.13;;;13.47;;
13238;SDS011;6686;51.292;4.166;2023-02-21T08:57:23;30.27;;;14.87;;
13238;SDS011;6686;51.292;4.166;2023-02-21T09:00:09;29.10;;;13.77;;
13238;SDS011;6686;51.292;4.166;2023-02-21T09:02:55;28.43;;;14.37;;
13238;SDS011;6686;51.292;4.166;2023-02-21T09:05:41;31.30;;;16.10;;
13238;SDS011;6686;51.292;4.166;2023-02-21T09:08:27;31.10;;;15.53;;
13238;SDS011;6686;51.292;4.166;2023-02-21T09:11:12;26.83;;;12.90;;
13238;SDS011;6686;51.292;4.166;2023-02-21T09:13:58;25.35;;;15.02;;
13238;SDS011;6686;51.292;4.166;2023-02-21T09:16:44;25.50;;;13.03;;
13238;SDS011;6686;51.292;4.166;2023-02-21T09:19:30;27.00;;;11.73;;
13238;SDS011;6686;51.292;4.166;2023-02-21T09:22:16;20.90;;;11.37;;
13238;SDS011;6686;51.292;4.166;2023-02-21T09:25:02;23.40;;;12.63;;
13238;SDS011;6686;51.292;4.166;2023-02-21T09:27:48;24.83;;;11.70;;
13238;SDS011;6686;51.292;4.166;2023-02-21T09:30:34;23.00;;;11.73;;
13238;SDS011;6686;51.292;4.166;2023-02-21T09:33:20;23.33;;;11.40;;
13238;SDS011;6686;51.292;4.166;2023-02-21T09:36:07;29.67;;;14.95;;
13238;SDS011;6686;51.292;4.166;2023-02-21T09:38:53;28.20;;;12.70;;
13238;SDS011;6686;51.292;4.166;2023-02-21T09:41:39;29.40;;;13.60;;
13238;SDS011;6686;51.292;4.166;2023-02-21T09:44:26;22.67;;;12.20;;
13238;SDS011;6686;51.292;4.166;2023-02-21T09:47:18;30.57;;;13.77;;
13238;SDS011;6686;51.292;4.166;2023-02-21T09:50:06;28.00;;;13.73;;
13238;SDS011;6686;51.292;4.166;2023-02-21T09:52:47;28.17;;;14.03;;
13238;SDS011;6686;51.292;4.166;2023-02-21T09:55:37;23.27;;;12.37;;
13238;SDS011;6686;51.292;4.166;2023-02-21T09:58:20;31.90;;;13.63;;
13238;SDS011;6686;51.292;4.166;2023-02-21T10:01:08;30.67;;;13.80;;
13238;SDS011;6686;51.292;4.166;2023-02-21T10:07:09;30.73;;;15.67;;
13238;SDS011;6686;51.292;4.166;2023-02-21T10:09:53;34.30;;;15.70;;
13238;SDS011;6686;51.292;4.166;2023-02-21T10:13:19;33.00;;;15.57;;
13238;SDS011;6686;51.292;4.166;2023-02-21T10:15:54;33.50;;;16.60;;
13238;SDS011;6686;51.292;4.166;2023-02-21T10:21:48;35.57;;;17.73;;
13238;SDS011;6686;51.292;4.166;2023-02-21T10:24:34;37.77;;;17.23;;
13238;SDS011;6686;51.292;4.166;2023-02-21T10:27:21;40.93;;;18.47;;
13238;SDS011;6686;51.292;4.166;2023-02-21T10:30:06;48.75;;;24.05;;
13238;SDS011;6686;51.292;4.166;2023-02-21T10:32:55;45.33;;;20.87;;
13238;SDS011;6686;51.292;4.166;2023-02-21T10:35:41;55.27;;;23.90;;
13238;SDS011;6686;51.292;4.166;2023-02-21T10:38:27;56.47;;;23.13;;
13238;SDS011;6686;51.292;4.166;2023-02-21T10:41:12;56.03;;;25.77;;
13238;SDS011;6686;51.292;4.166;2023-02-21T10:44:02;60.23;;;25.63;;
13238;SDS011;6686;51.292;4.166;2023-02-21T10:46:46;66.63;;;26.80;;
13238;SDS011;6686;51.292;4.166;2023-02-21T10:49:46;69.80;;;27.00;;
13238;SDS011;6686;51.292;4.166;2023-02-21T10:52:45;63.03;;;27.83;;
13238;SDS011;6686;51.292;4.166;2023-02-21T10:55:23;53.67;;;23.40;;
13238;SDS011;6686;51.292;4.166;2023-02-21T10:58:17;53.50;;;23.23;;
13238;SDS011;6686;51.292;4.166;2023-02-21T11:00:55;59.90;;;26.83;;
13238;SDS011;6686;51.292;4.166;2023-02-21T11:03:45;57.30;;;26.97;;
13238;SDS011;6686;51.292;4.166;2023-02-21T11:09:23;54.90;;;25.10;;
13238;SDS011;6686;51.292;4.166;2023-02-21T11:12:26;73.27;;;31.47;;
13238;SDS011;6686;51.292;4.166;2023-02-21T11:15:15;78.53;;;33.40;;
13238;SDS011;6686;51.292;4.166;2023-02-21T11:18:05;84.47;;;33.33;;
13238;SDS011;6686;51.292;4.166;2023-02-21T11:21:08;59.43;;;26.00;;
13238;SDS011;6686;51.292;4.166;2023-02-21T11:23:45;55.80;;;26.50;;
13238;SDS011;6686;51.292;4.166;2023-02-21T11:26:53;55.90;;;26.53;;
13238;SDS011;6686;51.292;4.166;2023-02-21T11:29:20;54.90;;;24.20;;
13238;SDS011;6686;51.292;4.166;2023-02-21T11:32:27;34.30;;;16.13;;
13238;SDS011;6686;51.292;4.166;2023-02-21T11:35:07;27.33;;;14.03;;
13238;SDS011;6686;51.292;4.166;2023-02-21T11:37:54;24.30;;;12.23;;
13238;SDS011;6686;51.292;4.166;2023-02-21T11:40:42;33.60;;;15.73;;
13238;SDS011;6686;51.292;4.166;2023-02-21T11:43:31;31.57;;;14.20;;
13238;SDS011;6686;51.292;4.166;2023-02-21T11:49:32;44.20;;;19.63;;
13238;SDS011;6686;51.292;4.166;2023-02-21T11:52:08;63.03;;;29.25;;
13238;SDS011;6686;51.292;4.166;2023-02-21T11:54:53;41.33;;;19.77;;
13238;SDS011;6686;51.292;4.166;2023-02-21T12:04:13;71.67;;;31.13;;
13238;SDS011;6686;51.292;4.166;2023-02-21T12:07:16;90.13;;;35.93;;
13238;SDS011;6686;51.292;4.166;2023-02-21T12:10:01;93.83;;;38.93;;
13238;SDS011;6686;51.292;4.166;2023-02-21T12:13:02;102.73;;;41.30;;
13238;SDS011;6686;51.292;4.166;2023-02-21T12:19:14;53.10;;;23.03;;
13238;SDS011;6686;51.292;4.166;2023-02-21T12:22:07;36.63;;;16.70;;
13238;SDS011;6686;51.292;4.166;2023-02-21T12:51:48;31.73;;;18.13;;
13238;SDS011;6686;51.292;4.166;2023-02-21T12:54:53;26.17;;;15.23;;
13238;SDS011;6686;51.292;4.166;2023-02-21T13:00:42;25.97;;;13.40;;
13238;SDS011;6686;51.292;4.166;2023-02-21T13:06:58;28.80;;;20.60;;
13238;SDS011;6686;51.292;4.166;2023-02-21T13:09:35;24.97;;;14.83;;
13238;SDS011;6686;51.292;4.166;2023-02-21T13:12:23;28.37;;;16.67;;
13238;SDS011;6686;51.292;4.166;2023-02-21T13:18:05;22.07;;;12.80;;
13238;SDS011;6686;51.292;4.166;2023-02-21T13:20:56;26.53;;;12.60;;
13238;SDS011;6686;51.292;4.166;2023-02-21T13:36:25;24.58;;;16.42;;
13238;SDS011;6686;51.292;4.166;2023-02-21T13:39:15;23.60;;;14.07;;
13238;SDS011;6686;51.292;4.166;2023-02-21T13:42:10;24.77;;;15.43;;
13238;SDS011;6686;51.292;4.166;2023-02-21T13:45:12;26.63;;;15.63;;
13238;SDS011;6686;51.292;4.166;2023-02-21T13:50:47;41.67;;;25.77;;
13238;SDS011;6686;51.292;4.166;2023-02-21T13:54:02;43.00;;;25.47;;
13238;SDS011;6686;51.292;4.166;2023-02-21T13:56:19;39.90;;;23.57;;
13238;SDS011;6686;51.292;4.166;2023-02-21T14:02:20;37.43;;;22.77;;
13238;SDS011;6686;51.292;4.166;2023-02-21T14:05:07;30.43;;;19.57;;
13238;SDS011;6686;51.292;4.166;2023-02-21T14:08:00;34.20;;;22.87;;
13238;SDS011;6686;51.292;4.166;2023-02-21T14:10:53;22.10;;;15.70;;
13238;SDS011;6686;51.292;4.166;2023-02-21T14:13:54;20.10;;;13.93;;
13238;SDS011;6686;51.292;4.166;2023-02-21T14:16:46;20.40;;;13.37;;
13238;SDS011;6686;51.292;4.166;2023-02-21T14:22:27;23.07;;;14.73;;
13238;SDS011;6686;51.292;4.166;2023-02-21T14:25:20;22.23;;;13.93;;
13238;SDS011;6686;51.292;4.166;2023-02-21T14:28:01;19.47;;;13.70;;
13238;SDS011;6686;51.292;4.166;2023-02-21T14:30:47;18.07;;;12.20;;
13238;SDS011;6686;51.292;4.166;2023-02-21T14:33:33;19.37;;;13.43;;
13238;SDS011;6686;51.292;4.166;2023-02-21T14:36:22;19.07;;;13.43;;
13238;SDS011;6686;51.292;4.166;2023-02-21T14:39:08;28.43;;;18.93;;
13238;SDS011;6686;51.292;4.166;2023-02-21T14:42:05;35.83;;;23.23;;
13238;SDS011;6686;51.292;4.166;2023-02-21T14:44:54;55.43;;;34.33;;
13238;SDS011;6686;51.292;4.166;2023-02-21T14:51:07;44.20;;;29.47;;
13238;SDS011;6686;51.292;4.166;2023-02-21T15:00:12;24.80;;;17.47;;
13238;SDS011;6686;51.292;4.166;2023-02-21T15:02:57;24.17;;;17.23;;
13238;SDS011;6686;51.292;4.166;2023-02-21T15:05:59;22.53;;;16.77;;
13238;SDS011;6686;51.292;4.166;2023-02-21T15:08:50;16.17;;;12.47;;
13238;SDS011;6686;51.292;4.166;2023-02-21T15:11:36;15.43;;;11.53;;
13238;SDS011;6686;51.292;4.166;2023-02-21T15:14:22;17.27;;;12.17;;
13238;SDS011;6686;51.292;4.166;2023-02-21T15:17:27;17.90;;;14.13;;
13238;SDS011;6686;51.292;4.166;2023-02-21T15:20:04;19.10;;;13.17;;
13238;SDS011;6686;51.292;4.166;2023-02-21T15:23:04;18.27;;;11.90;;
13238;SDS011;6686;51.292;4.166;2023-02-21T15:25:53;16.83;;;11.93;;
13238;SDS011;6686;51.292;4.166;2023-02-21T15:28:38;16.17;;;12.20;;
13238;SDS011;6686;51.292;4.166;2023-02-21T15:31:24;16.43;;;11.60;;
13238;SDS011;6686;51.292;4.166;2023-02-21T15:34:17;15.90;;;11.57;;
13238;SDS011;6686;51.292;4.166;2023-02-21T15:37:15;14.73;;;10.77;;
13238;SDS011;6686;51.292;4.166;2023-02-21T15:40:04;15.87;;;12.13;;
13238;SDS011;6686;51.292;4.166;2023-02-21T15:42:50;18.30;;;12.93;;
13238;SDS011;6686;51.292;4.166;2023-02-21T15:45:40;18.27;;;12.70;;
13238;SDS011;6686;51.292;4.166;2023-02-21T15:48:22;17.08;;;13.68;;
13238;SDS011;6686;51.292;4.166;2023-02-21T15:51:10;17.08;;;13.27;;
13238;SDS011;6686;51.292;4.166;2023-02-21T15:54:09;16.63;;;11.47;;
13238;SDS011;6686;51.292;4.166;2023-02-21T15:57:00;14.47;;;11.60;;
13238;SDS011;6686;51.292;4.166;2023-02-21T15:59:55;14.10;;;10.70;;
13238;SDS011;6686;51.292;4.166;2023-02-21T16:02:35;13.93;;;11.03;;
13238;SDS011;6686;51.292;4.166;2023-02-21T16:05:27;15.67;;;11.03;;
13238;SDS011;6686;51.292;4.166;2023-02-21T16:08:13;14.33;;;11.60;;
13238;SDS011;6686;51.292;4.166;2023-02-21T16:11:02;16.47;;;11.57;;
13238;SDS011;6686;51.292;4.166;2023-02-21T16:13:47;16.60;;;12.00;;
13238;SDS011;6686;51.292;4.166;2023-02-21T16:16:34;15.03;;;10.83;;
13238;SDS011;6686;51.292;4.166;2023-02-21T16:19:20;14.77;;;10.60;;
13238;SDS011;6686;51.292;4.166;2023-02-21T16:22:10;14.23;;;9.63;;
13238;SDS011;6686;51.292;4.166;2023-02-21T16:27:56;20.93;;;14.30;;
13238;SDS011;6686;51.292;4.166;2023-02-21T16:30:41;19.30;;;13.53;;
13238;SDS011;6686;51.292;4.166;2023-02-21T16:33:27;14.80;;;11.00;;
13238;SDS011;6686;51.292;4.166;2023-02-21T16:36:18;17.30;;;11.70;;
13238;SDS011;6686;51.292;4.166;2023-02-21T16:39:11;17.53;;;11.70;;
13238;SDS011;6686;51.292;4.166;2023-02-21T16:41:57;16.20;;;12.07;;
13238;SDS011;6686;51.292;4.166;2023-02-21T16:44:44;16.17;;;11.77;;
13238;SDS011;6686;51.292;4.166;2023-02-21T16:47:30;16.63;;;12.07;;
13238;SDS011;6686;51.292;4.166;2023-02-21T16:50:19;15.43;;;11.77;;
13238;SDS011;6686;51.292;4.166;2023-02-21T16:53:09;15.90;;;11.07;;
13238;SDS011;6686;51.292;4.166;2023-02-21T16:55:53;16.17;;;11.23;;
13238;SDS011;6686;51.292;4.166;2023-02-21T16:58:41;13.23;;;10.57;;
13238;SDS011;6686;51.292;4.166;2023-02-21T17:01:29;16.20;;;11.87;;
13238;SDS011;6686;51.292;4.166;2023-02-21T17:04:15;17.03;;;11.83;;
13238;SDS011;6686;51.292;4.166;2023-02-21T17:07:01;15.20;;;12.47;;
13238;SDS011;6686;51.292;4.166;2023-02-21T17:09:46;17.63;;;12.37;;
13238;SDS011;6686;51.292;4.166;2023-02-21T17:12:32;15.17;;;11.00;;
13238;SDS011;6686;51.292;4.166;2023-02-21T17:15:18;13.63;;;10.90;;
13238;SDS011;6686;51.292;4.166;2023-02-21T17:18:05;15.85;;;13.80;;
13238;SDS011;6686;51.292;4.166;2023-02-21T17:20:50;16.75;;;13.32;;
13238;SDS011;6686;51.292;4.166;2023-02-21T17:23:36;18.42;;;14.38;;
13238;SDS011;6686;51.292;4.166;2023-02-21T17:26:22;17.47;;;12.10;;
13238;SDS011;6686;51.292;4.166;2023-02-21T17:29:08;16.03;;;13.17;;
13238;SDS011;6686;51.292;4.166;2023-02-21T17:31:54;15.27;;;11.57;;
13238;SDS011;6686;51.292;4.166;2023-02-21T17:34:40;15.60;;;12.27;;
13238;SDS011;6686;51.292;4.166;2023-02-21T17:37:26;16.97;;;12.30;;
13238;SDS011;6686;51.292;4.166;2023-02-21T17:40:12;15.17;;;12.23;;
13238;SDS011;6686;51.292;4.166;2023-02-21T17:42:59;14.73;;;12.10;;
13238;SDS011;6686;51.292;4.166;2023-02-21T17:45:45;15.83;;;12.60;;
13238;SDS011;6686;51.292;4.166;2023-02-21T17:48:31;15.27;;;12.00;;
13238;SDS011;6686;51.292;4.166;2023-02-21T17:51:19;16.47;;;12.87;;
13238;SDS011;6686;51.292;4.166;2023-02-21T17:54:07;16.33;;;12.97;;
13238;SDS011;6686;51.292;4.166;2023-02-21T17:56:53;17.93;;;14.43;;
13238;SDS011;6686;51.292;4.166;2023-02-21T17:59:39;16.93;;;12.37;;
13238;SDS011;6686;51.292;4.166;2023-02-21T18:02:25;16.70;;;13.03;;
13238;SDS011;6686;51.292;4.166;2023-02-21T18:05:11;15.17;;;12.40;;
13238;SDS011;6686;51.292;4.166;2023-02-21T18:07:57;15.57;;;12.53;;
13238;SDS011;6686;51.292;4.166;2023-02-21T18:10:43;15.60;;;11.90;;
13238;SDS011;6686;51.292;4.166;2023-02-21T18:13:29;16.03;;;12.30;;
13238;SDS011;6686;51.292;4.166;2023-02-21T18:16:14;17.03;;;13.63;;
13238;SDS011;6686;51.292;4.166;2023-02-21T18:19:00;16.87;;;13.37;;
13238;SDS011;6686;51.292;4.166;2023-02-21T18:21:46;15.23;;;12.30;;
13238;SDS011;6686;51.292;4.166;2023-02-21T18:24:32;16.90;;;12.70;;
13238;SDS011;6686;51.292;4.166;2023-02-21T18:27:18;15.07;;;12.23;;
13238;SDS011;6686;51.292;4.166;2023-02-21T18:30:04;16.10;;;13.13;;
13238;SDS011;6686;51.292;4.166;2023-02-21T18:32:50;19.40;;;14.13;;
13238;SDS011;6686;51.292;4.166;2023-02-21T18:35:36;19.33;;;14.23;;
13238;SDS011;6686;51.292;4.166;2023-02-21T18:38:22;19.93;;;15.40;;
13238;SDS011;6686;51.292;4.166;2023-02-21T18:41:09;20.97;;;14.80;;
13238;SDS011;6686;51.292;4.166;2023-02-21T18:43:54;23.17;;;15.97;;
13238;SDS011;6686;51.292;4.166;2023-02-21T18:46:40;21.67;;;14.90;;